Time;durP1;ratioP1;P1;durP2;ratioP2;P2;SDS_P1;SDS_P2;PMS_P1;PMS_P2;Temp;Humidity;BMP_temperature;BMP_pressure;BME280_temperature;BME280_humidity;BME280_pressure;Samples;Min_cycle;Max_cycle;Signal;HPM_P1;HPM_P2
2023/10/07 00:01:37;;;;;;;;;14.00;13.00;;;;;8.24;99.81;100298.50;6316882;20;2794130;-43
2023/10/07 00:04:09;;;;;;;;;19.00;15.40;;;;;8.33;99.42;100297.25;6304710;20;2819043;-42
2023/10/07 00:06:38;;;;;;;;;15.00;13.50;;;;;8.26;99.38;100301.97;6283882;20;2794111;-43
2023/10/07 00:09:10;;;;;;;;;16.50;15.00;;;;;8.64;99.73;100296.81;6284546;20;2793993;-44
2023/10/07 00:11:39;;;;;;;;;18.67;15.00;;;;;8.44;100.00;100289.66;6283392;20;3546181;-43
2023/10/07 00:14:09;;;;;;;;;12.50;12.00;;;;;8.36;100.00;100291.75;6314686;20;2793082;-43
2023/10/07 00:16:39;;;;;;;;;12.00;12.00;;;;;9.08;97.94;100290.41;6278610;20;2787543;-44
2023/10/07 00:19:07;;;;;;;;;12.00;10.50;;;;;9.09;97.13;100286.81;6315680;20;2794106;-43
2023/10/07 00:21:58;;;;;;;;;16.00;14.00;;;;;8.90;97.08;100282.28;6284002;20;2807607;-44
2023/10/07 00:24:35;;;;;;;;;19.00;15.50;;;;;8.77;98.09;100287.31;6286020;20;2815900;-44
2023/10/07 00:27:05;;;;;;;;;23.00;17.50;;;;;8.78;98.65;100282.81;6276774;20;2836580;-43
2023/10/07 00:29:52;;;;;;;;;23.67;18.67;;;;;9.13;99.23;100283.03;6282738;20;3570088;-46
2023/10/07 00:32:30;;;;;;;;;20.50;18.50;;;;;8.66;100.00;100278.91;6282003;20;2841998;-46
2023/10/07 00:35:00;;;;;;;;;21.33;18.33;;;;;8.73;100.00;100287.50;6278311;20;3579556;-44
2023/10/07 00:37:33;;;;;;;;;18.67;15.67;;;;;8.08;100.00;100282.22;6282362;20;3554433;-45
2023/10/07 00:40:31;;;;;;;;;14.33;12.00;;;;;8.25;100.00;100286.00;6281350;20;3517323;-43
2023/10/07 00:43:06;;;;;;;;;16.67;14.00;;;;;8.47;100.00;100284.16;6311878;20;3525258;-43
2023/10/07 00:45:35;;;;;;;;;18.33;15.00;;;;;8.98;97.32;100274.75;6312182;20;3531544;-43
2023/10/07 00:48:04;;;;;;;;;18.50;17.50;;;;;9.06;97.35;100271.75;6312920;20;2833772;-43
2023/10/07 00:50:34;;;;;;;;;21.00;19.00;;;;;8.81;99.05;100261.25;6281232;20;2840934;-43
2023/10/07 00:53:06;;;;;;;;;18.67;18.33;;;;;9.05;99.56;100263.75;6279386;20;3562842;-43
2023/10/07 00:55:35;;;;;;;;;18.00;17.00;;;;;8.81;100.00;100258.56;6279317;20;2825307;-44
2023/10/07 00:58:13;;;;;;;;;20.00;18.50;;;;;8.70;100.00;100244.81;6279075;20;2836779;-44
2023/10/07 01:00:46;;;;;;;;;18.00;15.50;;;;;8.80;100.00;100243.47;6282829;20;2823224;-41
2023/10/07 01:08:34;;;;;;;;;19.00;18.00;;;;;9.18;100.00;100227.41;6276057;20;2500355;-43
2023/10/07 01:13:48;;;;;;;;;19.00;17.00;;;;;8.93;100.00;100233.06;6309423;20;3559665;-44
2023/10/07 01:16:56;;;;;;;;;23.00;18.00;;;;;9.06;100.00;100225.31;6279605;20;2834859;-45
2023/10/07 01:19:19;;;;;;;;;22.00;20.50;;;;;9.17;100.00;100225.69;6279271;20;2498184;-47
2023/10/07 01:21:55;;;;;;;;;20.33;17.00;;;;;8.96;100.00;100223.06;6279599;20;3577363;-43
2023/10/07 01:27:18;;;;;;;;;19.50;18.00;;;;;9.00;100.00;100222.00;6274679;20;2489860;-43
2023/10/07 01:29:50;;;;;;;;;20.00;17.00;;;;;8.88;100.00;100219.88;6280008;20;2829958;-43
2023/10/07 01:32:19;;;;;;;;;18.33;16.33;;;;;8.64;100.00;100210.31;6279339;20;3558641;-43
2023/10/07 01:34:51;;;;;;;;;19.33;18.33;;;;;8.44;100.00;100214.72;6279472;20;3568999;-43
2023/10/07 01:37:21;;;;;;;;;23.50;20.00;;;;;8.69;100.00;100208.25;6275693;20;2489902;-44
2023/10/07 01:39:52;;;;;;;;;16.00;13.00;;;;;8.43;100.00;100209.47;6282764;20;2814972;-43
2023/10/07 01:42:35;;;;;;;;;18.50;17.50;;;;;8.83;100.00;100210.31;6281374;20;2500254;-42
2023/10/07 01:45:20;;;;;;;;;19.00;17.00;;;;;8.66;100.00;100193.22;6283729;20;2831613;-43
2023/10/07 01:47:55;;;;;;;;;20.50;16.00;;;;;8.81;100.00;100188.97;6284040;20;2831536;-43
2023/10/07 01:50:24;;;;;;;;;17.50;17.00;;;;;8.69;100.00;100181.50;6287659;20;2830507;-43
2023/10/07 01:52:56;;;;;;;;;23.00;18.00;;;;;8.49;100.00;100180.59;6283887;20;2498213;-44
2023/10/07 01:55:27;;;;;;;;;24.00;19.00;;;;;8.70;100.00;100177.88;6282262;20;3573246;-44
2023/10/07 01:57:56;;;;;;;;;24.00;19.00;;;;;8.82;100.00;100181.78;6281823;20;2492036;-43
2023/10/07 02:00:44;;;;;;;;;17.00;16.67;;;;;7.69;100.00;100181.38;6282804;20;3554632;-45
2023/10/07 02:03:18;;;;;;;;;21.33;14.33;;;;;7.92;100.00;100182.19;6281345;20;3554461;-43
2023/10/07 02:05:50;;;;;;;;;15.00;15.00;;;;;8.14;100.00;100185.69;6315864;20;2804654;-43
2023/10/07 02:08:25;;;;;;;;;14.33;11.67;;;;;8.24;100.00;100179.91;6286149;20;3513843;-43
2023/10/07 02:10:59;;;;;;;;;18.00;18.00;;;;;8.51;100.00;100186.75;6311647;20;2491943;-43
2023/10/07 02:13:30;;;;;;;;;22.00;18.50;;;;;9.00;100.00;100170.22;6284193;20;2829428;-43
2023/10/07 02:15:58;;;;;;;;;21.00;18.50;;;;;8.87;100.00;100175.28;6283668;20;2830570;-43
2023/10/07 02:18:29;;;;;;;;;17.50;16.50;;;;;8.76;100.00;100177.59;6281936;20;2825296;-43
2023/10/07 02:21:16;;;;;;;;;17.00;16.33;;;;;8.93;100.00;100180.38;6283694;20;3563193;-43
2023/10/07 02:23:44;;;;;;;;;17.00;15.33;;;;;9.16;100.00;100173.94;6284690;20;3555631;-43
2023/10/07 02:26:20;;;;;;;;;21.00;18.50;;;;;9.42;100.00;100172.63;6313848;20;2834642;-44
2023/10/07 02:28:52;;;;;;;;;24.50;22.00;;;;;9.01;100.00;100175.53;6284844;20;2844027;-44
2023/10/07 02:31:26;;;;;;;;;23.00;20.00;;;;;9.09;100.00;100175.16;6282499;20;2841926;-42
2023/10/07 02:33:58;;;;;;;;;25.00;20.00;;;;;9.12;100.00;100166.97;6284032;20;2500425;-43
2023/10/07 02:36:36;;;;;;;;;21.50;21.50;;;;;9.35;100.00;100176.59;6281860;20;2841970;-44
2023/10/07 02:39:24;;;;;;;;;21.00;19.50;;;;;9.41;100.00;100170.06;6280557;20;2500376;-43
2023/10/07 02:41:53;;;;;;;;;21.00;21.00;;;;;9.37;100.00;100173.81;6280730;20;2831528;-43
2023/10/07 02:44:30;;;;;;;;;23.50;23.00;;;;;9.09;100.00;100169.81;6281737;20;2500417;-44
2023/10/07 02:47:06;;;;;;;;;23.00;19.00;;;;;9.18;100.00;100164.00;6282652;20;2844055;-44
2023/10/07 02:49:34;;;;;;;;;20.50;20.50;;;;;9.21;100.00;100162.97;6279216;20;2496182;-44
2023/10/07 02:52:03;;;;;;;;;23.00;20.50;;;;;9.36;100.00;100145.28;6279539;20;2844052;-43
2023/10/07 02:54:33;;;;;;;;;21.00;18.00;;;;;9.37;100.00;100142.56;6280460;20;2844008;-43
2023/10/07 02:57:08;;;;;;;;;20.00;20.00;;;;;9.43;100.00;100149.41;6280871;20;2500256;-43
2023/10/07 02:59:42;;;;;;;;;26.50;24.00;;;;;9.40;100.00;100147.75;6282737;20;2500333;-43
2023/10/07 03:02:12;;;;;;;;;21.00;18.50;;;;;9.67;100.00;100152.69;6280819;20;2487761;-43
2023/10/07 03:04:58;;;;;;;;;22.33;20.33;;;;;9.57;100.00;100149.59;6283770;20;3572109;-43
2023/10/07 03:07:27;;;;;;;;;26.00;21.00;;;;;9.31;100.00;100141.97;6284318;20;2846171;-43
2023/10/07 03:10:16;;;;;;;;;20.67;19.00;;;;;9.40;100.00;100147.75;6283528;20;3564834;-43
2023/10/07 03:12:56;;;;;;;;;23.00;20.00;;;;;9.53;100.00;100136.41;6280831;20;2841016;-43
2023/10/07 03:15:41;;;;;;;;;25.00;21.00;;;;;9.59;100.00;100141.47;6281699;20;2838844;-46
2023/10/07 03:18:23;;;;;;;;;24.00;22.50;;;;;9.60;100.00;100143.19;6280886;20;2498446;-45
2023/10/07 03:21:06;;;;;;;;;24.00;22.50;;;;;9.43;100.00;100142.25;6281409;20;2500285;-43
2023/10/07 03:23:37;;;;;;;;;27.00;24.00;;;;;9.44;100.00;100141.28;6282431;20;2500303;-43
2023/10/07 03:26:06;;;;;;;;;27.00;22.00;;;;;9.49;100.00;100149.09;6280374;20;2847169;-45
2023/10/07 03:28:37;;;;;;;;;22.50;21.50;;;;;9.52;100.00;100145.41;6280943;20;2839915;-43
2023/10/07 03:31:10;;;;;;;;;26.00;23.00;;;;;9.06;100.00;100137.81;6284115;20;2500284;-46
2023/10/07 03:33:44;;;;;;;;;21.00;18.00;;;;;9.16;100.00;100138.22;6282087;20;2498204;-43
2023/10/07 03:38:57;;;;;;;;;25.00;21.00;;;;;9.31;100.00;100140.16;6280026;20;2839839;-43
2023/10/07 03:41:26;;;;;;;;;26.50;24.50;;;;;9.38;100.00;100133.56;6277143;20;2846145;-43
2023/10/07 03:43:55;;;;;;;;;30.50;25.50;;;;;9.04;100.00;100141.50;6284069;20;2856535;-40
2023/10/07 03:46:27;;;;;;;;;31.50;28.50;;;;;8.85;100.00;100142.38;6279091;20;2865031;-43
2023/10/07 03:48:57;;;;;;;;;29.50;23.50;;;;;8.63;100.00;100128.25;6281746;20;2840930;-45
2023/10/07 03:51:30;;;;;;;;;30.00;24.50;;;;;9.04;100.00;100133.47;6282861;20;2861794;-45
2023/10/07 03:56:49;;;;;;;;;22.50;21.00;;;;;8.67;100.00;100136.06;6280337;20;2846045;-43
2023/10/07 03:59:18;;;;;;;;;19.00;19.00;;;;;8.96;100.00;100139.19;6279455;20;2500398;-46
2023/10/07 04:01:53;;;;;;;;;25.00;20.00;;;;;8.41;100.00;100136.41;6282735;20;2844253;-45
2023/10/07 04:04:23;;;;;;;;;21.50;19.50;;;;;7.95;100.00;100139.25;6283223;20;2817046;-43
2023/10/07 04:06:52;;;;;;;;;22.00;17.50;;;;;7.99;100.00;100132.84;6276320;20;2500288;-44
2023/10/07 04:09:32;;;;;;;;;20.00;17.50;;;;;8.62;100.00;100130.06;6281987;20;2500306;-43
2023/10/07 04:12:03;;;;;;;;;22.50;21.00;;;;;8.97;100.00;100128.38;6279643;20;2837060;-43
2023/10/07 04:14:35;;;;;;;;;23.00;19.00;;;;;8.70;100.00;100125.22;6284877;20;2836719;-40
2023/10/07 04:17:11;;;;;;;;;23.50;22.00;;;;;8.90;100.00;100123.41;6279956;20;2836863;-42
2023/10/07 04:19:42;;;;;;;;;32.50;24.50;;;;;8.61;100.00;100114.06;6284642;20;2873185;-45
2023/10/07 04:22:11;;;;;;;;;25.00;24.00;;;;;8.66;100.00;100117.38;6281575;20;2850330;-45
2023/10/07 04:24:43;;;;;;;;;27.00;23.00;;;;;8.33;100.00;100112.63;6279877;20;2845078;-45
2023/10/07 04:27:19;;;;;;;;;23.50;23.00;;;;;8.49;100.00;100111.03;6278500;20;2850309;-43
2023/10/07 04:29:51;;;;;;;;;27.50;26.00;;;;;8.57;100.00;100106.19;6281060;20;2858751;-44
2023/10/07 04:32:21;;;;;;;;;26.50;24.00;;;;;8.78;100.00;100111.47;6275764;20;2839957;-44
2023/10/07 04:37:47;;;;;;;;;19.00;17.00;;;;;7.13;100.00;100112.41;6280176;20;2833585;-45
2023/10/07 04:45:49;;;;;;;;;23.67;18.67;;;;;8.35;100.00;100106.28;6278115;20;3578419;-42
2023/10/07 04:48:24;;;;;;;;;26.50;25.50;;;;;8.38;100.00;100107.94;6280000;20;2847213;-42
2023/10/07 04:51:12;;;;;;;;;21.67;18.00;;;;;8.04;100.00;100108.59;6280351;20;3572128;-42
2023/10/07 04:53:43;;;;;;;;;28.67;21.67;;;;;8.53;100.00;100111.72;6276676;20;2849370;-41
2023/10/07 04:56:21;;;;;;;;;30.33;28.67;;;;;9.12;100.00;100104.50;6309697;20;2861737;-42
2023/10/07 04:58:51;;;;;;;;;22.00;19.50;;;;;9.61;100.00;100102.91;6312809;20;2837788;-42
2023/10/07 05:01:33;;;;;;;;;18.67;17.33;;;;;10.13;100.00;100099.31;6278925;20;3564878;-42
2023/10/07 05:04:15;;;;;;;;;19.00;19.00;;;;;10.23;100.00;100105.94;6282034;20;2780490;-44
2023/10/07 05:06:44;;;;;;;;;24.00;22.00;;;;;9.76;100.00;100105.75;6308385;20;2840901;-43
2023/10/07 05:09:18;;;;;;;;;20.00;18.00;;;;;9.50;100.00;100109.75;6280687;20;2500369;-43
2023/10/07 05:11:47;;;;;;;;;22.00;17.00;;;;;9.35;100.00;100103.38;6279020;20;2498242;-42
2023/10/07 05:14:22;;;;;;;;;18.50;16.00;;;;;9.82;100.00;100116.16;6282262;20;2827486;-43
2023/10/07 05:16:52;;;;;;;;;18.50;17.00;;;;;9.65;100.00;100111.66;6282649;20;2836774;-42
2023/10/07 05:19:21;;;;;;;;;24.00;19.50;;;;;10.00;100.00;100114.34;6284462;20;2494055;-42
2023/10/07 05:24:46;;;;;;;;;23.50;21.00;;;;;10.36;100.00;100116.06;6285635;20;2841976;-42
2023/10/07 05:27:15;;;;;;;;;20.00;20.00;;;;;9.89;100.00;100101.47;6280722;20;2500343;-43
2023/10/07 05:29:46;;;;;;;;;23.00;21.50;;;;;10.02;100.00;100110.63;6285415;20;2848204;-43
2023/10/07 05:32:17;;;;;;;;;23.00;22.00;;;;;10.24;100.00;100099.63;6284515;20;2829513;-43
2023/10/07 05:34:48;;;;;;;;;72.67;56.33;;;;;10.47;100.00;100094.88;6284767;20;3625386;-43
2023/10/07 05:37:18;;;;;;;;;55.33;46.00;;;;;10.62;100.00;100095.84;6312443;20;3614920;-43
2023/10/07 05:39:47;;;;;;;;;37.00;33.00;;;;;10.88;100.00;100097.09;6318371;20;2860796;-45
2023/10/07 05:42:16;;;;;;;;;29.00;29.00;;;;;11.20;100.00;100093.41;6315682;20;2837852;-43
2023/10/07 05:44:45;;;;;;;;;28.00;25.67;;;;;11.69;100.00;100100.44;6284362;20;3599330;-43
2023/10/07 05:47:14;;;;;;;;;22.00;19.50;;;;;12.18;98.79;100102.00;6281277;20;2844039;-44
2023/10/07 05:49:44;;;;;;;;;22.00;21.67;;;;;12.30;97.17;100098.56;6284463;20;3589867;-43
2023/10/07 05:52:12;;;;;;;;;20.00;20.00;;;;;12.69;95.53;100103.28;6314691;20;2833627;-44
2023/10/07 05:54:43;;;;;;;;;24.00;22.00;;;;;14.68;89.92;100106.97;6283155;20;2842966;-44
2023/10/07 05:57:10;;;;;;;;;14.00;14.00;;;;;19.07;68.09;100113.09;6279288;20;2500374;-48
2023/10/07 05:59:42;;;;;;;;;18.33;18.33;;;;;15.44;75.99;100119.41;6288176;20;3558714;-47
2023/10/07 06:02:14;;;;;;;;;18.00;18.00;;;;;16.61;71.37;100122.16;6317790;20;3569014;-48
2023/10/07 06:04:44;;;;;;;;;22.67;21.67;;;;;13.29;88.57;100112.03;6317990;20;3589927;-47
2023/10/07 06:07:14;;;;;;;;;22.00;20.33;;;;;13.43;92.13;100114.69;6282203;20;2838870;-43
2023/10/07 06:09:44;;;;;;;;;18.00;18.00;;;;;14.28;90.34;100118.75;6311864;20;2837806;-46
2023/10/07 06:12:15;;;;;;;;;17.33;14.67;;;;;17.74;75.26;100133.69;6284966;20;3545053;-45
2023/10/07 06:14:44;;;;;;;;;13.67;12.67;;;;;16.17;76.47;100133.78;6278898;20;3529429;-45
2023/10/07 06:17:13;;;;;;;;;18.00;18.00;;;;;15.19;83.08;100135.72;6282846;20;3560688;-47
2023/10/07 06:19:43;;;;;;;;;16.00;14.50;;;;;14.63;86.91;100136.16;6281956;20;2810669;-43
2023/10/07 06:22:12;;;;;;;;;13.00;13.00;;;;;14.73;87.77;100134.53;6286419;20;2796870;-44
2023/10/07 06:24:42;;;;;;;;;17.50;16.00;;;;;15.67;84.13;100150.19;6282262;20;2825268;-41
2023/10/07 06:27:20;;;;;;;;;13.33;13.33;;;;;15.75;83.40;100138.81;6282758;20;3531535;-45
2023/10/07 06:29:49;;;;;;;;;14.50;13.00;;;;;16.09;81.17;100137.09;6285494;20;2487856;-42
2023/10/07 06:32:24;;;;;;;;;20.00;16.00;;;;;15.97;82.13;100132.59;6285904;20;2823182;-44
2023/10/07 06:34:55;;;;;;;;;15.00;13.33;;;;;16.71;78.43;100143.94;6281941;20;3528404;-45
2023/10/07 06:37:30;;;;;;;;;13.00;11.50;;;;;16.41;78.75;100141.84;6282720;20;2683621;-45
2023/10/07 06:39:58;;;;;;;;;15.00;15.00;;;;;16.79;75.08;100146.94;6315757;20;2491982;-47
2023/10/07 06:42:27;;;;;;;;;18.00;16.00;;;;;16.58;76.05;100143.19;6284647;20;2834713;-45
2023/10/07 06:44:56;;;;;;;;;16.00;16.00;;;;;16.96;75.54;100144.75;6282514;20;3550261;-44
2023/10/07 06:47:29;;;;;;;;;18.50;15.00;;;;;17.38;73.93;100143.06;6281280;20;2819539;-45
2023/10/07 06:49:58;;;;;;;;;18.00;15.50;;;;;17.26;73.78;100144.94;6284581;20;2823235;-46
2023/10/07 06:52:26;;;;;;;;;14.50;14.50;;;;;16.08;78.41;100139.91;6284226;20;2500400;-48
2023/10/07 06:54:56;;;;;;;;;14.33;13.67;;;;;15.42;81.42;100143.00;6284243;20;2801782;-47
2023/10/07 06:57:37;;;;;;;;;16.00;15.00;;;;;15.18;83.08;100140.28;6317241;20;3546188;-49
2023/10/07 07:00:12;;;;;;;;;16.00;13.00;;;;;14.94;83.50;100142.94;6314042;20;3534617;-46
2023/10/07 07:02:43;;;;;;;;;18.00;17.00;;;;;14.56;85.30;100140.28;6281217;20;2492049;-47
2023/10/07 07:05:16;;;;;;;;;17.00;15.00;;;;;14.51;86.03;100143.28;6314876;20;2810725;-47
2023/10/07 07:07:45;;;;;;;;;19.00;16.00;;;;;14.55;85.73;100147.53;6282506;20;2487788;-45
2023/10/07 07:10:16;;;;;;;;;20.67;19.00;;;;;14.40;86.71;100144.06;6313946;20;3566889;-44
2023/10/07 07:12:46;;;;;;;;;19.50;17.00;;;;;14.44;86.29;100144.69;6281681;20;2837812;-46
2023/10/07 07:15:26;;;;;;;;;17.00;15.50;;;;;14.52;85.96;100142.31;6280455;20;2812787;-47
2023/10/07 07:18:07;;;;;;;;;15.00;13.00;;;;;14.51;86.65;100137.88;6281737;20;2795182;-45
2023/10/07 07:23:26;;;;;;;;;17.00;15.50;;;;;14.67;85.50;100146.66;6283911;20;2491960;-45
2023/10/07 07:26:20;;;;;;;;;13.50;13.50;;;;;14.76;84.86;100144.28;6282665;20;2489862;-47
2023/10/07 07:28:44;;;;;;;;;17.67;15.33;;;;;14.88;84.77;100140.69;6283523;20;3552385;-46
2023/10/07 07:31:19;;;;;;;;;18.00;15.00;;;;;14.87;84.54;100138.94;6282871;20;2496134;-46
2023/10/07 07:33:48;;;;;;;;;22.50;20.50;;;;;15.02;83.82;100145.09;6285674;20;2848748;-43
2023/10/07 07:36:39;;;;;;;;;23.00;21.67;;;;;15.02;83.55;100145.94;6284847;20;3577455;-47
2023/10/07 07:39:18;;;;;;;;;28.67;25.33;;;;;15.30;83.15;100149.34;6284872;20;3575373;-44
2023/10/07 07:41:56;;;;;;;;;43.67;35.00;;;;;15.32;82.37;100150.09;6276467;20;3620141;-45
2023/10/07 07:44:34;;;;;;;;;28.67;26.33;;;;;15.09;82.95;100146.38;6317813;20;3588900;-43
2023/10/07 07:47:05;;;;;;;;;22.67;21.00;;;;;15.27;82.72;100154.97;6283988;20;3581512;-48
2023/10/07 07:49:38;;;;;;;;;22.67;20.33;;;;;15.32;83.26;100152.78;6280994;20;2842034;-45
2023/10/07 07:52:08;;;;;;;;;23.33;21.00;;;;;15.59;81.54;100156.16;6318678;20;3584644;-47
2023/10/07 07:54:37;;;;;;;;;15.00;15.00;;;;;16.77;76.79;100159.78;6280626;20;2812841;-43
2023/10/07 07:57:08;;;;;;;;;17.00;17.00;;;;;17.29;74.18;100158.25;6273667;20;2500379;-43
2023/10/07 07:59:38;;;;;;;;;19.67;16.00;;;;;16.94;74.10;100160.28;6312798;20;3565876;-44
2023/10/07 08:04:47;;;;;;;;;19.00;16.00;;;;;17.81;71.68;100152.22;6280238;20;2837920;-45
2023/10/07 08:07:27;;;;;;;;;17.00;15.50;;;;;18.30;70.55;100162.50;6283854;20;2823220;-47
2023/10/07 08:10:03;;;;;;;;;19.50;15.00;;;;;18.40;68.96;100162.53;6284083;20;2491972;-44
2023/10/07 08:12:35;;;;;;;;;21.00;15.00;;;;;18.48;69.76;100151.00;6280819;20;2822558;-46
2023/10/07 08:17:45;;;;;;;;;15.50;14.50;;;;;19.32;66.26;100154.41;6282775;20;2496275;-47
2023/10/07 08:20:22;;;;;;;;;18.50;16.00;;;;;19.13;66.06;100140.75;6281979;20;2485728;-46
2023/10/07 08:22:52;;;;;;;;;15.67;11.67;;;;;18.79;66.99;100147.34;6279121;20;3522275;-48
2023/10/07 08:28:23;;;;;;;;;16.00;14.00;;;;;19.32;65.57;100143.53;6280005;20;2491972;-48
2023/10/07 08:30:53;;;;;;;;;16.50;16.00;;;;;19.48;64.10;100148.44;6283552;20;2487850;-44
2023/10/07 08:33:24;;;;;;;;;18.50;13.00;;;;;20.12;62.80;100141.63;6283464;20;2491986;-45
2023/10/07 08:35:52;;;;;;;;;12.67;12.67;;;;;20.09;62.32;100141.91;6279847;20;2792012;-46
2023/10/07 08:38:37;;;;;;;;;17.00;14.00;;;;;20.31;61.19;100138.88;6312596;20;3544173;-43
2023/10/07 08:41:07;;;;;;;;;12.00;11.67;;;;;20.26;60.80;100134.88;6318017;20;2790905;-46
2023/10/07 08:44:02;;;;;;;;;10.00;8.33;;;;;19.54;62.06;100128.81;6313711;20;2757561;-56
2023/10/07 08:46:39;;;;;;;;;10.00;9.00;;;;;19.11;63.15;100129.13;6314830;20;2763909;-54
2023/10/07 08:49:15;;;;;;;;;17.00;15.00;;;;;19.36;63.96;100123.19;6315102;20;3544108;-43
2023/10/07 08:51:45;;;;;;;;;17.33;13.67;;;;;19.34;64.37;100125.19;6284494;20;3523265;-46
2023/10/07 08:54:37;;;;;;;;;15.50;11.00;;;;;19.45;62.72;100122.34;6319485;20;2794285;-42
2023/10/07 08:57:08;;;;;;;;;18.00;13.00;;;;;19.11;63.28;100135.44;6284104;20;2492071;-45
2023/10/07 08:59:38;;;;;;;;;13.00;12.00;;;;;18.98;64.21;100124.78;6288078;20;3524209;-44
2023/10/07 09:02:23;;;;;;;;;13.00;13.00;;;;;19.60;61.91;100130.97;6316552;20;3507609;-41
2023/10/07 09:04:51;;;;;;;;;12.00;11.00;;;;;19.70;61.25;100134.59;6323382;20;2794074;-44
2023/10/07 09:07:20;;;;;;;;;13.00;13.00;;;;;19.70;61.19;100131.03;6284775;20;3525409;-46
2023/10/07 09:09:49;;;;;;;;;13.67;12.67;;;;;19.52;62.33;100131.66;6290404;20;2794131;-45
2023/10/07 09:12:18;;;;;;;;;15.33;12.67;;;;;19.86;61.32;100135.91;6317299;20;3518028;-43
2023/10/07 09:14:52;;;;;;;;;13.67;12.00;;;;;20.41;59.55;100135.28;6316845;20;2485712;-42
2023/10/07 09:17:26;;;;;;;;;12.33;11.67;;;;;21.13;57.73;100131.88;6316173;20;2483667;-45
2023/10/07 09:19:58;;;;;;;;;13.33;10.33;;;;;21.13;55.80;100137.34;6307860;20;3509645;-50
2023/10/07 09:22:35;;;;;;;;;15.00;13.67;;;;;20.20;58.91;100139.03;6313500;20;3510701;-46
2023/10/07 09:25:17;;;;;;;;;8.67;8.67;;;;;20.07;59.22;100139.34;6319252;20;2767391;-46
2023/10/07 09:27:56;;;;;;;;;15.00;14.00;;;;;19.93;59.86;100137.91;6308623;20;3522362;-46
2023/10/07 09:30:35;;;;;;;;;15.33;13.00;;;;;20.47;59.27;100134.69;6284783;20;3529508;-46
2023/10/07 09:33:14;;;;;;;;;12.67;11.67;;;;;20.63;57.25;100143.13;6313543;20;3504442;-45
2023/10/07 09:39:14;;;;;;;;;11.67;11.00;;;;;20.33;57.42;100138.75;6318703;20;2786867;-44
2023/10/07 09:41:45;;;;;;;;;14.33;11.33;;;;;20.88;57.29;100127.09;6313839;20;3512797;-48
2023/10/07 09:44:26;;;;;;;;;15.00;14.00;;;;;21.26;56.03;100143.31;6284356;20;2782726;-44
2023/10/07 09:46:55;;;;;;;;;14.67;13.00;;;;;20.81;56.17;100137.78;6314420;20;3512763;-46
2023/10/07 09:49:25;;;;;;;;;16.33;10.67;;;;;20.81;57.12;100132.31;6288669;20;2800410;-48
2023/10/07 09:52:16;;;;;;;;;14.67;14.33;;;;;20.96;56.93;100121.78;6320170;20;2800423;-45
2023/10/07 09:55:30;;;;;;;;;14.00;11.67;;;;;21.30;55.81;100130.22;6316378;20;2492167;-45
2023/10/07 09:58:34;;;;;;;;;14.67;12.67;;;;;20.89;56.31;100120.66;6314018;20;3521500;-47
2023/10/07 10:01:36;;;;;;;;;15.33;10.67;;;;;21.34;55.61;100117.09;6285212;20;3532699;-47
2023/10/07 10:04:46;;;;;;;;;14.67;13.33;;;;;20.48;56.27;100114.56;6314567;20;3518090;-47
2023/10/07 10:08:11;;;;;;;;;9.00;9.00;;;;;20.67;55.93;100117.28;6290666;20;2752396;-47
2023/10/07 10:10:46;;;;;;;;;13.00;13.00;;;;;20.93;56.61;100111.13;6314234;20;3530546;-44
2023/10/07 10:16:16;;;;;;;;;22.67;19.00;;;;;20.40;57.02;100101.66;6290307;20;3573189;-47
2023/10/07 10:18:51;;;;;;;;;15.67;13.00;;;;;20.92;55.49;100101.22;6281040;20;3510684;-46
2023/10/07 10:21:23;;;;;;;;;20.00;12.00;;;;;21.41;54.66;100096.41;6317087;20;3545072;-48
2023/10/07 10:23:52;;;;;;;;;13.00;11.33;;;;;21.34;54.58;100095.25;6284557;20;3508624;-49
2023/10/07 10:26:22;;;;;;;;;11.67;9.00;;;;;21.47;53.12;100101.22;6313955;20;3485189;-49
2023/10/07 10:29:03;;;;;;;;;11.00;10.00;;;;;21.56;52.80;100100.28;6316944;20;2782634;-47
2023/10/07 10:31:34;;;;;;;;;11.67;11.00;;;;;21.56;51.98;100097.56;6317290;20;2781746;-51
2023/10/07 10:34:05;;;;;;;;;12.33;10.33;;;;;21.72;51.36;100107.78;6317566;20;2792132;-46
2023/10/07 10:36:49;;;;;;;;;11.00;9.33;;;;;21.51;50.21;100088.97;6313454;20;3500466;-44
2023/10/07 10:39:25;;;;;;;;;12.33;10.67;;;;;22.05;49.96;100087.06;6318398;20;2786849;-43
2023/10/07 10:42:02;;;;;;;;;14.33;9.00;;;;;22.38;49.77;100087.38;6315994;20;2777528;-43
2023/10/07 10:44:39;;;;;;;;;9.00;9.00;;;;;22.70;49.49;100083.09;6314252;20;2746296;-43
2023/10/07 10:47:09;;;;;;;;;8.20;8.20;;;;;22.49;48.49;100083.50;6338292;20;2748218;-45
2023/10/07 10:49:43;;;;;;;;;13.67;11.33;;;;;22.12;49.91;100076.38;6283218;20;3512763;-43
2023/10/07 10:52:14;;;;;;;;;11.67;10.00;;;;;21.87;51.12;100072.56;6314288;20;3511099;-45
2023/10/07 10:54:44;;;;;;;;;11.33;11.33;;;;;21.98;50.43;100057.78;6318020;20;2791064;-43
2023/10/07 10:57:19;;;;;;;;;10.00;10.00;;;;;22.29;50.35;100063.69;6318313;20;2789891;-43
2023/10/07 10:59:48;;;;;;;;;7.00;7.00;;;;;22.44;48.75;100059.34;6313124;20;2748243;-42
2023/10/07 11:02:22;;;;;;;;;9.67;9.00;;;;;22.54;48.84;100049.16;6316665;20;3479520;-43
2023/10/07 11:04:54;;;;;;;;;11.67;11.00;;;;;22.48;48.22;100041.56;6323681;20;2784774;-42
2023/10/07 11:07:24;;;;;;;;;14.00;11.00;;;;;22.38;48.53;100043.59;6309969;20;2792093;-41
2023/10/07 11:09:53;;;;;;;;;14.33;11.00;;;;;22.27;49.06;100041.97;6312376;20;3524239;-46
2023/10/07 11:12:27;;;;;;;;;11.33;10.00;;;;;22.71;48.50;100032.78;6310575;20;3506590;-43
2023/10/07 11:15:12;;;;;;;;;9.00;9.00;;;;;22.80;48.57;100020.84;6315827;20;3463894;-42
2023/10/07 11:17:51;;;;;;;;;9.00;9.00;;;;;22.50;48.89;100023.13;6319611;20;2748181;-45
2023/10/07 11:20:24;;;;;;;;;15.00;11.67;;;;;22.63;48.46;100013.59;6311867;20;2797484;-43
2023/10/07 11:22:53;;;;;;;;;11.33;9.67;;;;;22.72;49.23;100015.34;6312923;20;3497166;-45
2023/10/07 11:25:27;;;;;;;;;9.33;8.00;;;;;22.44;48.96;100015.56;6313956;20;2760945;-42
2023/10/07 11:27:55;;;;;;;;;12.00;9.67;;;;;22.23;49.08;100013.22;6318838;20;2786811;-44
2023/10/07 11:30:24;;;;;;;;;9.67;9.67;;;;;22.44;49.44;100001.03;6314738;20;3487900;-42
2023/10/07 11:32:54;;;;;;;;;13.00;10.33;;;;;22.69;48.79;100011.06;6314647;20;3509647;-48
2023/10/07 11:35:30;;;;;;;;;12.33;8.67;;;;;22.46;49.12;100010.78;6315225;20;3494061;-44
2023/10/07 11:37:59;;;;;;;;;11.00;11.00;;;;;22.65;47.17;100000.63;6312266;20;3511817;-41
2023/10/07 11:40:29;;;;;;;;;6.50;6.50;;;;;22.75;43.58;100001.34;6319365;20;2683717;-41
2023/10/07 11:43:04;;;;;;;;;8.00;6.33;;;;;23.03;42.90;100006.59;6322247;20;2746162;-43
2023/10/07 11:45:33;;;;;;;;;9.67;9.00;;;;;23.28;42.46;100005.63;6314929;20;2749390;-42
2023/10/07 11:48:08;;;;;;;;;12.00;11.67;;;;;23.45;41.25;100007.34;6316812;20;2787910;-44
2023/10/07 11:50:37;;;;;;;;;9.33;8.67;;;;;23.26;41.80;99991.22;6316100;20;2744077;-43
2023/10/07 11:53:06;;;;;;;;;7.33;7.33;;;;;24.16;40.98;100002.19;6320060;20;2741969;-43
2023/10/07 11:55:37;;;;;;;;;6.20;6.20;;;;;23.63;41.01;99987.16;6339192;20;2745118;-42
2023/10/07 11:58:08;;;;;;;;;5.40;5.40;;;;;23.25;41.76;99978.56;6307792;20;2736748;-43
2023/10/07 12:00:42;;;;;;;;;8.67;6.00;;;;;23.17;42.06;99986.75;6287967;20;2746150;-42
2023/10/07 12:03:10;;;;;;;;;10.00;7.00;;;;;23.10;41.61;99983.84;6317540;20;2761684;-42
2023/10/07 12:05:40;;;;;;;;;14.33;10.00;;;;;23.09;42.60;99982.13;6318291;20;2786757;-42
2023/10/07 12:08:11;;;;;;;;;10.67;9.00;;;;;22.84;42.70;99991.28;6323801;20;2773230;-42
2023/10/07 12:10:41;;;;;;;;;9.33;8.00;;;;;22.78;42.10;99981.84;6321046;20;2753384;-46